sensor_id;sensor_type;location;lat;lon;timestamp;pressure;altitude;pressure_sealevel;temperature;humidity
75045;BME280;63614;56.026;35.960;2022-11-15T00:02:10;99925.09;;;-0.39;54.15
75045;BME280;63614;56.026;35.960;2022-11-15T00:04:55;99928.78;;;-0.30;54.05
75045;BME280;63614;56.026;35.960;2022-11-15T00:07:39;99929.69;;;-0.18;53.38
75045;BME280;63614;56.026;35.960;2022-11-15T00:10:24;99917.50;;;-0.14;53.74
75045;BME280;63614;56.026;35.960;2022-11-15T00:13:10;99906.88;;;-0.21;53.92
75045;BME280;63614;56.026;35.960;2022-11-15T00:15:59;99912.16;;;-0.11;54.00
75045;BME280;63614;56.026;35.960;2022-11-15T00:18:44;99899.81;;;-0.05;53.67
75045;BME280;63614;56.026;35.960;2022-11-15T00:21:29;99897.69;;;-0.24;53.40
75045;BME280;63614;56.026;35.960;2022-11-15T00:24:13;99890.19;;;-0.14;53.60
75045;BME280;63614;56.026;35.960;2022-11-15T00:26:58;99891.56;;;0.03;53.14
75045;BME280;63614;56.026;35.960;2022-11-15T00:29:42;99873.97;;;0.11;52.89
75045;BME280;63614;56.026;35.960;2022-11-15T00:32:31;99881.81;;;0.21;52.27
75045;BME280;63614;56.026;35.960;2022-11-15T00:35:16;99877.59;;;0.20;52.83
75045;BME280;63614;56.026;35.960;2022-11-15T00:38:01;99877.56;;;0.09;53.11
75045;BME280;63614;56.026;35.960;2022-11-15T00:40:45;99880.03;;;-0.03;55.38
75045;BME280;63614;56.026;35.960;2022-11-15T00:43:30;99878.00;;;-0.10;54.64
75045;BME280;63614;56.026;35.960;2022-11-15T00:46:14;99878.28;;;-0.02;54.34
75045;BME280;63614;56.026;35.960;2022-11-15T00:48:59;99866.84;;;0.04;54.82
75045;BME280;63614;56.026;35.960;2022-11-15T00:51:43;99868.06;;;-0.02;56.11
75045;BME280;63614;56.026;35.960;2022-11-15T00:54:27;99871.66;;;-0.05;54.62
75045;BME280;63614;56.026;35.960;2022-11-15T00:57:12;99866.69;;;-0.19;55.60
75045;BME280;63614;56.026;35.960;2022-11-15T00:59:56;99873.22;;;-0.15;55.49
75045;BME280;63614;56.026;35.960;2022-11-15T01:02:41;99872.13;;;-0.24;55.65
75045;BME280;63614;56.026;35.960;2022-11-15T01:05:25;99871.72;;;-0.30;55.98
75045;BME280;63614;56.026;35.960;2022-11-15T01:08:13;99877.97;;;-0.34;56.66
75045;BME280;63614;56.026;35.960;2022-11-15T01:11:06;99877.38;;;-0.38;57.79
75045;BME280;63614;56.026;35.960;2022-11-15T01:13:51;99871.94;;;-0.33;57.25
75045;BME280;63614;56.026;35.960;2022-11-15T01:16:35;99867.44;;;-0.30;57.75
75045;BME280;63614;56.026;35.960;2022-11-15T01:19:20;99856.38;;;-0.30;58.40
75045;BME280;63614;56.026;35.960;2022-11-15T01:22:05;99852.09;;;-0.30;59.31
75045;BME280;63614;56.026;35.960;2022-11-15T01:24:50;99845.16;;;-0.41;58.84
75045;BME280;63614;56.026;35.960;2022-11-15T01:27:34;99848.22;;;-0.35;58.69
75045;BME280;63614;56.026;35.960;2022-11-15T01:30:19;99846.69;;;-0.38;59.19
75045;BME280;63614;56.026;35.960;2022-11-15T01:33:04;99844.56;;;-0.44;59.54
75045;BME280;63614;56.026;35.960;2022-11-15T01:35:48;99844.16;;;-0.38;59.62
75045;BME280;63614;56.026;35.960;2022-11-15T01:38:33;99847.22;;;-0.46;59.52
75045;BME280;63614;56.026;35.960;2022-11-15T01:41:21;99839.13;;;-0.40;59.46
75045;BME280;63614;56.026;35.960;2022-11-15T01:47:27;99826.69;;;-0.44;59.76
75045;BME280;63614;56.026;35.960;2022-11-15T01:50:21;99821.28;;;-0.52;60.18
75045;BME280;63614;56.026;35.960;2022-11-15T01:53:06;99818.53;;;-0.49;60.09
75045;BME280;63614;56.026;35.960;2022-11-15T01:55:50;99816.03;;;-0.38;60.31
75045;BME280;63614;56.026;35.960;2022-11-15T01:58:35;99817.66;;;-0.37;59.41
75045;BME280;63614;56.026;35.960;2022-11-15T02:01:21;99813.63;;;-0.52;59.87
75045;BME280;63614;56.026;35.960;2022-11-15T02:04:14;99811.78;;;-0.63;60.79
75045;BME280;63614;56.026;35.960;2022-11-15T02:07:03;99814.00;;;-0.46;59.95
75045;BME280;63614;56.026;35.960;2022-11-15T02:09:48;99794.31;;;-0.32;59.17
75045;BME280;63614;56.026;35.960;2022-11-15T02:12:34;99795.03;;;-0.30;59.34
75045;BME280;63614;56.026;35.960;2022-11-15T02:15:19;99791.88;;;-0.34;59.13
75045;BME280;63614;56.026;35.960;2022-11-15T02:24:16;99781.88;;;-0.37;58.88
75045;BME280;63614;56.026;35.960;2022-11-15T02:27:37;99781.59;;;-0.21;58.99
75045;BME280;63614;56.026;35.960;2022-11-15T02:36:32;99770.09;;;-0.27;59.10
75045;BME280;63614;56.026;35.960;2022-11-15T02:39:27;99764.34;;;-0.30;58.69
75045;BME280;63614;56.026;35.960;2022-11-15T02:42:35;99761.94;;;-0.32;58.99
75045;BME280;63614;56.026;35.960;2022-11-15T02:45:44;99759.97;;;-0.52;59.56
75045;BME280;63614;56.026;35.960;2022-11-15T02:48:31;99756.72;;;-0.67;59.70
75045;BME280;63614;56.026;35.960;2022-11-15T02:51:16;99750.94;;;-0.82;60.46
75045;BME280;63614;56.026;35.960;2022-11-15T02:54:01;99750.94;;;-0.82;61.91
75045;BME280;63614;56.026;35.960;2022-11-15T02:56:46;99748.00;;;-0.89;63.21
75045;BME280;63614;56.026;35.960;2022-11-15T02:59:50;99744.81;;;-1.05;61.86
75045;BME280;63614;56.026;35.960;2022-11-15T03:03:19;99738.19;;;-0.95;63.05
75045;BME280;63614;56.026;35.960;2022-11-15T03:11:55;99715.94;;;-1.19;62.39
75045;BME280;63614;56.026;35.960;2022-11-15T03:17:37;99715.84;;;-1.17;65.38
75045;BME280;63614;56.026;35.960;2022-11-15T03:20:23;99718.09;;;-1.25;64.01
75045;BME280;63614;56.026;35.960;2022-11-15T03:23:11;99716.47;;;-1.26;63.82
75045;BME280;63614;56.026;35.960;2022-11-15T03:25:56;99712.59;;;-1.19;64.54
75045;BME280;63614;56.026;35.960;2022-11-15T03:28:45;99715.94;;;-1.19;65.51
75045;BME280;63614;56.026;35.960;2022-11-15T03:31:35;99710.72;;;-1.04;64.92
75045;BME280;63614;56.026;35.960;2022-11-15T03:40:59;99719.41;;;-0.94;63.46
75045;BME280;63614;56.026;35.960;2022-11-15T03:44:05;99709.78;;;-0.90;64.01
75045;BME280;63614;56.026;35.960;2022-11-15T03:47:03;99702.66;;;-0.98;66.76
75045;BME280;63614;56.026;35.960;2022-11-15T03:49:52;99708.16;;;-0.92;66.43
75045;BME280;63614;56.026;35.960;2022-11-15T03:52:40;99712.03;;;-0.86;66.71
75045;BME280;63614;56.026;35.960;2022-11-15T03:55:25;99707.72;;;-0.85;65.84
75045;BME280;63614;56.026;35.960;2022-11-15T03:58:09;99695.81;;;-0.74;64.65
75045;BME280;63614;56.026;35.960;2022-11-15T04:00:54;99693.63;;;-0.78;62.76
75045;BME280;63614;56.026;35.960;2022-11-15T04:03:38;99692.69;;;-0.77;61.92
75045;BME280;63614;56.026;35.960;2022-11-15T04:06:23;99694.84;;;-0.84;64.56
75045;BME280;63614;56.026;35.960;2022-11-15T04:09:07;99693.59;;;-1.15;66.37
75045;BME280;63614;56.026;35.960;2022-11-15T04:11:52;99685.44;;;-1.33;67.06
75045;BME280;63614;56.026;35.960;2022-11-15T04:14:36;99689.84;;;-1.48;67.89
75045;BME280;63614;56.026;35.960;2022-11-15T04:17:20;99695.66;;;-1.46;67.00
75045;BME280;63614;56.026;35.960;2022-11-15T04:20:13;99678.41;;;-1.42;66.65
75045;BME280;63614;56.026;35.960;2022-11-15T04:23:22;99695.81;;;-1.11;65.01
75045;BME280;63614;56.026;35.960;2022-11-15T04:26:25;99690.13;;;-1.14;64.45
75045;BME280;63614;56.026;35.960;2022-11-15T04:29:10;99699.44;;;-1.26;65.57
75045;BME280;63614;56.026;35.960;2022-11-15T04:32:13;99687.34;;;-1.11;64.57
75045;BME280;63614;56.026;35.960;2022-11-15T04:34:57;99694.53;;;-1.16;65.25
75045;BME280;63614;56.026;35.960;2022-11-15T04:37:42;99689.91;;;-1.11;64.75
75045;BME280;63614;56.026;35.960;2022-11-15T04:40:26;99690.78;;;-0.99;64.90
75045;BME280;63614;56.026;35.960;2022-11-15T04:43:11;99679.78;;;-1.00;63.74
75045;BME280;63614;56.026;35.960;2022-11-15T04:45:55;99673.59;;;-1.08;63.93
75045;BME280;63614;56.026;35.960;2022-11-15T04:48:39;99668.22;;;-1.05;64.54
75045;BME280;63614;56.026;35.960;2022-11-15T04:51:23;99660.25;;;-1.01;63.84
75045;BME280;63614;56.026;35.960;2022-11-15T04:54:08;99667.81;;;-0.99;64.36
75045;BME280;63614;56.026;35.960;2022-11-15T04:56:53;99652.38;;;-0.98;64.22
75045;BME280;63614;56.026;35.960;2022-11-15T04:59:37;99655.53;;;-0.81;64.69
75045;BME280;63614;56.026;35.960;2022-11-15T05:02:21;99645.03;;;-0.65;64.36
75045;BME280;63614;56.026;35.960;2022-11-15T05:05:06;99644.47;;;-0.58;64.83
75045;BME280;63614;56.026;35.960;2022-11-15T05:07:50;99649.69;;;-0.59;64.65
75045;BME280;63614;56.026;35.960;2022-11-15T05:10:35;99646.81;;;-0.55;64.80
75045;BME280;63614;56.026;35.960;2022-11-15T05:13:19;99642.75;;;-0.57;65.67
75045;BME280;63614;56.026;35.960;2022-11-15T05:16:04;99636.38;;;-0.51;65.41
75045;BME280;63614;56.026;35.960;2022-11-15T05:18:53;99641.06;;;-0.69;65.68
75045;BME280;63614;56.026;35.960;2022-11-15T05:21:37;99642.75;;;-0.57;65.58
75045;BME280;63614;56.026;35.960;2022-11-15T05:24:22;99643.94;;;-0.50;64.83
75045;BME280;63614;56.026;35.960;2022-11-15T05:27:06;99640.16;;;-0.68;66.19
75045;BME280;63614;56.026;35.960;2022-11-15T05:29:51;99638.69;;;-0.48;65.78
75045;BME280;63614;56.026;35.960;2022-11-15T05:32:36;99638.97;;;-0.40;64.56
75045;BME280;63614;56.026;35.960;2022-11-15T05:35:34;99619.56;;;-0.43;64.88
75045;BME280;63614;56.026;35.960;2022-11-15T05:38:20;99626.50;;;-0.45;64.77
75045;BME280;63614;56.026;35.960;2022-11-15T05:41:08;99620.44;;;-0.55;64.98
75045;BME280;63614;56.026;35.960;2022-11-15T05:43:53;99617.19;;;-0.57;65.49
75045;BME280;63614;56.026;35.960;2022-11-15T05:46:39;99619.88;;;-0.59;65.33
75045;BME280;63614;56.026;35.960;2022-11-15T05:49:30;99612.53;;;-0.63;65.67
75045;BME280;63614;56.026;35.960;2022-11-15T05:52:17;99618.97;;;-0.46;65.04
75045;BME280;63614;56.026;35.960;2022-11-15T05:55:04;99616.06;;;-0.42;65.07
75045;BME280;63614;56.026;35.960;2022-11-15T05:57:50;99590.03;;;-0.47;64.51
75045;BME280;63614;56.026;35.960;2022-11-15T06:00:35;99606.50;;;-0.27;64.17
75045;BME280;63614;56.026;35.960;2022-11-15T06:03:19;99602.53;;;-0.20;64.38
75045;BME280;63614;56.026;35.960;2022-11-15T06:06:04;99609.88;;;-0.15;64.27
75045;BME280;63614;56.026;35.960;2022-11-15T06:08:48;99605.22;;;-0.21;63.77
75045;BME280;63614;56.026;35.960;2022-11-15T06:11:33;99605.34;;;-0.11;63.48
75045;BME280;63614;56.026;35.960;2022-11-15T06:14:19;99590.13;;;-0.13;63.73
75045;BME280;63614;56.026;35.960;2022-11-15T06:17:03;99594.09;;;-0.09;63.96
75045;BME280;63614;56.026;35.960;2022-11-15T06:19:47;99590.50;;;-0.06;62.85
75045;BME280;63614;56.026;35.960;2022-11-15T06:22:31;99582.59;;;-0.03;63.55
75045;BME280;63614;56.026;35.960;2022-11-15T06:25:15;99580.97;;;-0.04;63.27
75045;BME280;63614;56.026;35.960;2022-11-15T06:28:00;99572.16;;;0.00;63.39
75045;BME280;63614;56.026;35.960;2022-11-15T06:30:44;99570.25;;;-0.21;63.47
75045;BME280;63614;56.026;35.960;2022-11-15T06:33:29;99568.66;;;0.01;63.09
75045;BME280;63614;56.026;35.960;2022-11-15T06:36:13;99568.75;;;-0.01;62.75
75045;BME280;63614;56.026;35.960;2022-11-15T06:39:00;99561.44;;;0.17;62.93
75045;BME280;63614;56.026;35.960;2022-11-15T06:41:44;99560.28;;;0.22;62.62
75045;BME280;63614;56.026;35.960;2022-11-15T06:44:29;99551.31;;;0.16;61.48
75045;BME280;63614;56.026;35.960;2022-11-15T06:47:13;99551.78;;;0.32;61.07
75045;BME280;63614;56.026;35.960;2022-11-15T06:49:57;99545.63;;;0.24;61.51
75045;BME280;63614;56.026;35.960;2022-11-15T06:52:42;99546.34;;;0.26;62.07
75045;BME280;63614;56.026;35.960;2022-11-15T06:55:26;99548.28;;;0.22;61.62
75045;BME280;63614;56.026;35.960;2022-11-15T06:58:11;99544.94;;;0.22;61.45
75045;BME280;63614;56.026;35.960;2022-11-15T07:01:04;99533.53;;;0.37;61.66
75045;BME280;63614;56.026;35.960;2022-11-15T07:03:49;99539.94;;;0.20;61.25
75045;BME280;63614;56.026;35.960;2022-11-15T07:06:34;99535.50;;;0.33;61.62
75045;BME280;63614;56.026;35.960;2022-11-15T07:09:18;99539.13;;;0.08;61.53
75045;BME280;63614;56.026;35.960;2022-11-15T07:12:03;99530.97;;;-0.08;62.54
75045;BME280;63614;56.026;35.960;2022-11-15T07:14:47;99531.91;;;0.13;62.24
75045;BME280;63614;56.026;35.960;2022-11-15T07:17:31;99527.38;;;0.06;63.10
75045;BME280;63614;56.026;35.960;2022-11-15T07:20:17;99514.56;;;0.28;63.53
75045;BME280;63614;56.026;35.960;2022-11-15T07:23:03;99524.25;;;0.13;64.44
75045;BME280;63614;56.026;35.960;2022-11-15T07:25:48;99513.78;;;0.05;65.04
75045;BME280;63614;56.026;35.960;2022-11-15T07:28:32;99507.84;;;0.05;65.14
75045;BME280;63614;56.026;35.960;2022-11-15T07:31:17;99508.56;;;0.07;65.39
75045;BME280;63614;56.026;35.960;2022-11-15T07:34:02;99495.06;;;0.05;65.43
75045;BME280;63614;56.026;35.960;2022-11-15T07:36:46;99496.34;;;-0.12;65.47
75045;BME280;63614;56.026;35.960;2022-11-15T07:39:31;99487.03;;;-0.02;65.43
75045;BME280;63614;56.026;35.960;2022-11-15T07:42:15;99497.03;;;0.12;65.62
75045;BME280;63614;56.026;35.960;2022-11-15T07:45:22;99490.53;;;0.08;64.24
75045;BME280;63614;56.026;35.960;2022-11-15T07:48:07;99487.84;;;0.21;64.51
75045;BME280;63614;56.026;35.960;2022-11-15T07:50:51;99483.56;;;0.10;63.87
75045;BME280;63614;56.026;35.960;2022-11-15T07:53:35;99477.97;;;0.16;64.41
75045;BME280;63614;56.026;35.960;2022-11-15T07:56:20;99479.34;;;0.09;65.23
75045;BME280;63614;56.026;35.960;2022-11-15T07:59:04;99486.00;;;0.12;64.12
75045;BME280;63614;56.026;35.960;2022-11-15T08:01:48;99484.47;;;0.21;64.47
75045;BME280;63614;56.026;35.960;2022-11-15T08:04:32;99474.94;;;0.23;63.72
75045;BME280;63614;56.026;35.960;2022-11-15T08:07:16;99474.81;;;0.24;63.97
75045;BME280;63614;56.026;35.960;2022-11-15T08:10:01;99471.56;;;0.11;64.65
75045;BME280;63614;56.026;35.960;2022-11-15T08:12:45;99471.34;;;0.03;64.65
75045;BME280;63614;56.026;35.960;2022-11-15T08:15:30;99469.13;;;0.09;65.47
75045;BME280;63614;56.026;35.960;2022-11-15T08:18:16;99460.19;;;0.15;65.09
75045;BME280;63614;56.026;35.960;2022-11-15T08:21:01;99462.38;;;0.20;64.73
75045;BME280;63614;56.026;35.960;2022-11-15T08:23:45;99466.00;;;0.06;64.71
75045;BME280;63614;56.026;35.960;2022-11-15T08:26:30;99471.66;;;0.21;65.22
75045;BME280;63614;56.026;35.960;2022-11-15T08:29:15;99468.88;;;0.24;65.48
75045;BME280;63614;56.026;35.960;2022-11-15T08:31:59;99454.13;;;0.16;65.90
75045;BME280;63614;56.026;35.960;2022-11-15T08:34:44;99458.88;;;0.21;64.91
75045;BME280;63614;56.026;35.960;2022-11-15T08:37:29;99453.28;;;0.27;64.63
75045;BME280;63614;56.026;35.960;2022-11-15T08:40:14;99444.91;;;0.36;64.62
75045;BME280;63614;56.026;35.960;2022-11-15T08:42:58;99445.63;;;0.27;64.92
75045;BME280;63614;56.026;35.960;2022-11-15T08:45:46;99446.59;;;0.14;65.38
75045;BME280;63614;56.026;35.960;2022-11-15T08:48:31;99449.72;;;0.18;66.68
75045;BME280;63614;56.026;35.960;2022-11-15T08:51:15;99439.00;;;0.24;67.35
75045;BME280;63614;56.026;35.960;2022-11-15T08:54:00;99433.69;;;0.05;68.69
75045;BME280;63614;56.026;35.960;2022-11-15T08:56:44;99433.94;;;-0.10;68.98
75045;BME280;63614;56.026;35.960;2022-11-15T08:59:28;99427.22;;;-0.11;69.46
75045;BME280;63614;56.026;35.960;2022-11-15T09:02:13;99425.91;;;-0.16;69.93
75045;BME280;63614;56.026;35.960;2022-11-15T09:04:58;99431.84;;;0.07;70.05
75045;BME280;63614;56.026;35.960;2022-11-15T09:07:43;99423.00;;;-0.12;70.22
75045;BME280;63614;56.026;35.960;2022-11-15T09:10:27;99424.53;;;-0.09;70.43
75045;BME280;63614;56.026;35.960;2022-11-15T09:13:12;99421.00;;;0.03;71.41
75045;BME280;63614;56.026;35.960;2022-11-15T09:15:58;99419.31;;;-0.08;70.51
75045;BME280;63614;56.026;35.960;2022-11-15T09:18:43;99412.78;;;-0.12;70.79
75045;BME280;63614;56.026;35.960;2022-11-15T09:21:28;99407.19;;;0.06;71.43
75045;BME280;63614;56.026;35.960;2022-11-15T09:24:13;99407.44;;;-0.09;71.05
75045;BME280;63614;56.026;35.960;2022-11-15T09:26:57;99402.53;;;-0.01;72.08
75045;BME280;63614;56.026;35.960;2022-11-15T09:29:42;99403.78;;;0.16;71.96
75045;BME280;63614;56.026;35.960;2022-11-15T09:32:29;99388.22;;;0.20;71.02
75045;BME280;63614;56.026;35.960;2022-11-15T09:35:14;99394.81;;;0.22;71.02
75045;BME280;63614;56.026;35.960;2022-11-15T09:37:58;99386.41;;;-0.01;72.03
75045;BME280;63614;56.026;35.960;2022-11-15T09:40:43;99381.69;;;0.15;71.52
75045;BME280;63614;56.026;35.960;2022-11-15T09:49:34;99384.22;;;0.27;72.02
75045;BME280;63614;56.026;35.960;2022-11-15T09:52:27;99374.28;;;0.45;71.65
75045;BME280;63614;56.026;35.960;2022-11-15T09:54:53;99367.59;;;0.32;72.58
75045;BME280;63614;56.026;35.960;2022-11-15T10:03:08;99370.91;;;0.12;72.44
75045;BME280;63614;56.026;35.960;2022-11-15T10:05:43;99366.16;;;0.07;72.90
75045;BME280;63614;56.026;35.960;2022-11-15T10:11:00;99351.09;;;0.25;72.25
75045;BME280;63614;56.026;35.960;2022-11-15T10:13:41;99345.47;;;0.31;72.33
75045;BME280;63614;56.026;35.960;2022-11-15T10:21:48;99345.47;;;0.31;72.94
75045;BME280;63614;56.026;35.960;2022-11-15T10:24:20;99341.22;;;0.21;73.58
75045;BME280;63614;56.026;35.960;2022-11-15T10:26:50;99341.47;;;0.17;73.94
75045;BME280;63614;56.026;35.960;2022-11-15T10:29:20;99338.22;;;0.15;72.92
75045;BME280;63614;56.026;35.960;2022-11-15T10:31:46;99336.44;;;0.27;72.73
75045;BME280;63614;56.026;35.960;2022-11-15T10:34:16;99337.19;;;0.18;73.29
75045;BME280;63614;56.026;35.960;2022-11-15T10:36:58;99329.97;;;0.12;73.21
75045;BME280;63614;56.026;35.960;2022-11-15T10:39:25;99325.22;;;0.07;73.10
75045;BME280;63614;56.026;35.960;2022-11-15T10:41:51;99317.34;;;-0.01;72.96
75045;BME280;63614;56.026;35.960;2022-11-15T10:49:26;99311.84;;;-0.29;74.63
75045;BME280;63614;56.026;35.960;2022-11-15T10:51:56;99298.78;;;-0.58;75.51
75045;BME280;63614;56.026;35.960;2022-11-15T10:54:44;99304.94;;;-0.72;76.23
75045;BME280;63614;56.026;35.960;2022-11-15T10:57:38;99295.84;;;-0.42;75.53
75045;BME280;63614;56.026;35.960;2022-11-15T11:05:34;99280.38;;;-0.29;75.21
75045;BME280;63614;56.026;35.960;2022-11-15T11:08:22;99282.47;;;-0.34;75.09
75045;BME280;63614;56.026;35.960;2022-11-15T11:10:57;99269.06;;;-0.15;74.44
75045;BME280;63614;56.026;35.960;2022-11-15T11:13:38;99276.59;;;-0.14;74.32
75045;BME280;63614;56.026;35.960;2022-11-15T11:24:42;99262.44;;;0.14;73.24
75045;BME280;63614;56.026;35.960;2022-11-15T11:27:35;99256.91;;;-0.02;73.74
75045;BME280;63614;56.026;35.960;2022-11-15T11:30:18;99254.66;;;0.05;73.28
75045;BME280;63614;56.026;35.960;2022-11-15T11:43:47;99226.66;;;-0.18;74.50
75045;BME280;63614;56.026;35.960;2022-11-15T11:47:19;99226.22;;;-0.23;75.00
75045;BME280;63614;56.026;35.960;2022-11-15T11:49:33;99207.78;;;-0.06;74.17
75045;BME280;63614;56.026;35.960;2022-11-15T11:54:57;99212.50;;;-0.22;74.18
75045;BME280;63614;56.026;35.960;2022-11-15T12:00:20;99199.09;;;-0.14;73.22
75045;BME280;63614;56.026;35.960;2022-11-15T12:05:53;99189.66;;;-0.35;74.64
75045;BME280;63614;56.026;35.960;2022-11-15T12:11:19;99181.16;;;-0.35;74.86
75045;BME280;63614;56.026;35.960;2022-11-15T12:13:49;99186.19;;;-0.13;74.30
75045;BME280;63614;56.026;35.960;2022-11-15T12:16:21;99177.81;;;-0.36;74.92
75045;BME280;63614;56.026;35.960;2022-11-15T12:18:51;99182.44;;;-0.30;74.55
75045;BME280;63614;56.026;35.960;2022-11-15T12:24:00;99171.34;;;-0.51;75.70
75045;BME280;63614;56.026;35.960;2022-11-15T12:26:42;99159.50;;;-0.20;75.08
75045;BME280;63614;56.026;35.960;2022-11-15T12:29:16;99158.47;;;-0.50;75.67
75045;BME280;63614;56.026;35.960;2022-11-15T12:31:51;99161.31;;;-0.32;75.43
75045;BME280;63614;56.026;35.960;2022-11-15T12:36:51;99147.75;;;-0.44;75.07
75045;BME280;63614;56.026;35.960;2022-11-15T12:39:18;99143.56;;;-0.45;75.96
75045;BME280;63614;56.026;35.960;2022-11-15T12:47:01;99130.59;;;-0.53;76.29
75045;BME280;63614;56.026;35.960;2022-11-15T12:59:58;99132.44;;;-0.44;75.80
75045;BME280;63614;56.026;35.960;2022-11-15T13:02:38;99133.28;;;-0.55;75.96
75045;BME280;63614;56.026;35.960;2022-11-15T13:17:46;99103.34;;;-0.52;76.45
75045;BME280;63614;56.026;35.960;2022-11-15T13:26:14;99093.59;;;-0.59;76.77
75045;BME280;63614;56.026;35.960;2022-11-15T13:28:51;99091.34;;;-0.52;75.91
75045;BME280;63614;56.026;35.960;2022-11-15T13:31:30;99098.47;;;-0.56;76.29
75045;BME280;63614;56.026;35.960;2022-11-15T13:34:30;99093.16;;;-0.64;76.64
75045;BME280;63614;56.026;35.960;2022-11-15T13:37:02;99080.63;;;-0.67;76.28
75045;BME280;63614;56.026;35.960;2022-11-15T13:41:54;99078.88;;;-0.66;76.65
75045;BME280;63614;56.026;35.960;2022-11-15T13:44:22;99069.97;;;-0.72;77.19
75045;BME280;63614;56.026;35.960;2022-11-15T13:47:06;99063.63;;;-0.57;76.61
75045;BME280;63614;56.026;35.960;2022-11-15T13:49:33;99058.56;;;-0.68;76.56
75045;BME280;63614;56.026;35.960;2022-11-15T13:52:03;99067.50;;;-0.62;76.68
75045;BME280;63614;56.026;35.960;2022-11-15T14:00:00;99064.22;;;-0.85;77.31
75045;BME280;63614;56.026;35.960;2022-11-15T14:02:37;99066.06;;;-0.76;76.69
75045;BME280;63614;56.026;35.960;2022-11-15T14:05:23;99064.41;;;-0.77;76.94
75045;BME280;63614;56.026;35.960;2022-11-15T14:08:03;99070.63;;;-0.91;77.34
75045;BME280;63614;56.026;35.960;2022-11-15T14:10:35;99061.66;;;-0.85;77.29
75045;BME280;63614;56.026;35.960;2022-11-15T14:13:03;99058.25;;;-0.75;77.39
75045;BME280;63614;56.026;35.960;2022-11-15T14:15:34;99056.97;;;-1.01;77.12
75045;BME280;63614;56.026;35.960;2022-11-15T14:18:01;99052.38;;;-0.86;77.57
75045;BME280;63614;56.026;35.960;2022-11-15T14:20:33;99044.81;;;-1.09;77.78
75045;BME280;63614;56.026;35.960;2022-11-15T14:23:04;99040.25;;;-0.94;77.58
75045;BME280;63614;56.026;35.960;2022-11-15T14:25:32;99040.25;;;-0.94;77.45
75045;BME280;63614;56.026;35.960;2022-11-15T14:30:39;99042.94;;;-0.96;77.33
75045;BME280;63614;56.026;35.960;2022-11-15T14:33:32;99049.69;;;-0.85;77.52
75045;BME280;63614;56.026;35.960;2022-11-15T14:36:03;99047.69;;;-1.02;77.73
75045;BME280;63614;56.026;35.960;2022-11-15T14:38:30;99038.34;;;-1.13;78.02
75045;BME280;63614;56.026;35.960;2022-11-15T14:40:56;99041.78;;;-1.03;78.05
75045;BME280;63614;56.026;35.960;2022-11-15T14:43:22;99036.19;;;-0.97;77.70
75045;BME280;63614;56.026;35.960;2022-11-15T14:45:48;99029.31;;;-0.96;77.97
75045;BME280;63614;56.026;35.960;2022-11-15T14:48:14;99021.31;;;-0.92;77.45
75045;BME280;63614;56.026;35.960;2022-11-15T14:50:40;99024.81;;;-1.04;77.62
75045;BME280;63614;56.026;35.960;2022-11-15T14:53:06;99010.66;;;-0.97;77.39
75045;BME280;63614;56.026;35.960;2022-11-15T14:55:36;99016.97;;;-1.12;77.78
75045;BME280;63614;56.026;35.960;2022-11-15T14:58:03;99007.19;;;-1.07;77.73
75045;BME280;63614;56.026;35.960;2022-11-15T15:00:33;99006.22;;;-1.16;77.92
75045;BME280;63614;56.026;35.960;2022-11-15T15:02:59;99001.91;;;-1.15;78.59
75045;BME280;63614;56.026;35.960;2022-11-15T15:05:36;99002.97;;;-1.18;78.38
75045;BME280;63614;56.026;35.960;2022-11-15T15:08:04;99005.31;;;-1.26;78.42
75045;BME280;63614;56.026;35.960;2022-11-15T15:10:34;99011.91;;;-1.23;78.33
75045;BME280;63614;56.026;35.960;2022-11-15T15:13:01;99007.50;;;-1.21;78.43
75045;BME280;63614;56.026;35.960;2022-11-15T15:15:37;99003.78;;;-1.17;78.26
75045;BME280;63614;56.026;35.960;2022-11-15T15:18:04;99001.22;;;-1.17;78.34
75045;BME280;63614;56.026;35.960;2022-11-15T15:20:34;98999.88;;;-1.00;78.05
75045;BME280;63614;56.026;35.960;2022-11-15T15:23:00;98999.53;;;-0.96;77.35
75045;BME280;63614;56.026;35.960;2022-11-15T15:25:34;99001.25;;;-0.96;77.47
75045;BME280;63614;56.026;35.960;2022-11-15T15:28:01;99009.00;;;-1.19;78.07
75045;BME280;63614;56.026;35.960;2022-11-15T15:30:28;99001.34;;;-1.19;78.55
75045;BME280;63614;56.026;35.960;2022-11-15T15:32:55;99000.56;;;-0.98;78.04
75045;BME280;63614;56.026;35.960;2022-11-15T15:35:21;98994.44;;;-1.07;77.85
75045;BME280;63614;56.026;35.960;2022-11-15T15:37:48;98990.28;;;-1.08;77.83
75045;BME280;63614;56.026;35.960;2022-11-15T15:40:18;98996.13;;;-1.17;78.05
75045;BME280;63614;56.026;35.960;2022-11-15T15:42:46;98990.41;;;-1.10;77.83
75045;BME280;63614;56.026;35.960;2022-11-15T15:45:13;98992.28;;;-1.12;77.70
75045;BME280;63614;56.026;35.960;2022-11-15T15:47:40;98985.72;;;-1.25;79.11
75045;BME280;63614;56.026;35.960;2022-11-15T15:50:23;98982.88;;;-1.11;78.52
75045;BME280;63614;56.026;35.960;2022-11-15T15:52:50;98984.31;;;-1.30;79.05
75045;BME280;63614;56.026;35.960;2022-11-15T15:55:17;98989.53;;;-1.31;78.81
75045;BME280;63614;56.026;35.960;2022-11-15T15:57:43;98976.00;;;-1.32;78.57
75045;BME280;63614;56.026;35.960;2022-11-15T16:00:10;98980.72;;;-1.27;78.50
75045;BME280;63614;56.026;35.960;2022-11-15T16:02:39;98970.13;;;-1.11;77.96
75045;BME280;63614;56.026;35.960;2022-11-15T16:05:06;98969.63;;;-1.05;77.90
75045;BME280;63614;56.026;35.960;2022-11-15T16:07:32;98965.06;;;-1.01;78.11
75045;BME280;63614;56.026;35.960;2022-11-15T16:09:58;98968.91;;;-1.28;78.66
75045;BME280;63614;56.026;35.960;2022-11-15T16:12:32;98966.06;;;-1.14;78.17
75045;BME280;63614;56.026;35.960;2022-11-15T16:15:03;98962.25;;;-1.19;78.20
75045;BME280;63614;56.026;35.960;2022-11-15T16:17:39;98959.97;;;-1.22;78.51
75045;BME280;63614;56.026;35.960;2022-11-15T16:20:06;98952.91;;;-1.30;78.43
75045;BME280;63614;56.026;35.960;2022-11-15T16:22:32;98950.84;;;-1.36;79.07
75045;BME280;63614;56.026;35.960;2022-11-15T16:24:59;98945.50;;;-1.33;78.75
75045;BME280;63614;56.026;35.960;2022-11-15T16:27:25;98950.47;;;-1.32;78.60
75045;BME280;63614;56.026;35.960;2022-11-15T16:29:50;98943.63;;;-1.31;79.05